createdAt,value
2022-12-11T00:00:08.356Z,73.00
2022-12-11T00:02:56.114Z,73.07
2022-12-11T00:05:23.449Z,73.41
2022-12-11T00:07:50.079Z,73.55
2022-12-11T00:10:16.618Z,73.44
2022-12-11T00:12:43.348Z,73.47
2022-12-11T00:15:10.498Z,73.67
2022-12-11T00:17:38.081Z,73.70
2022-12-11T00:20:04.990Z,73.77
2022-12-11T00:22:31.506Z,73.76
2022-12-11T00:24:58.147Z,74.01
2022-12-11T00:27:25.109Z,74.47
2022-12-11T00:29:51.609Z,74.86
2022-12-11T00:32:18.171Z,74.90
2022-12-11T00:34:44.830Z,75.32
2022-12-11T00:37:11.441Z,75.42
2022-12-11T00:39:39.280Z,75.32
2022-12-11T00:42:07.302Z,75.14
2022-12-11T00:44:34.194Z,75.27
2022-12-11T00:47:01.007Z,75.28
2022-12-11T00:49:27.547Z,75.03
2022-12-11T00:51:54.354Z,74.71
2022-12-11T00:54:20.862Z,74.43
2022-12-11T00:56:47.389Z,74.21
2022-12-11T00:59:13.965Z,73.97
2022-12-11T01:01:40.557Z,73.94
2022-12-11T01:04:07.539Z,74.05
2022-12-11T01:06:34.034Z,73.89
2022-12-11T01:09:19.556Z,73.91
2022-12-11T01:11:46.293Z,74.02
2022-12-11T01:14:13.864Z,74.03
2022-12-11T01:16:40.771Z,73.99
2022-12-11T01:19:07.577Z,73.82
2022-12-11T01:21:34.330Z,74.07
2022-12-11T01:24:00.974Z,74.37
2022-12-11T01:26:27.520Z,74.68
2022-12-11T01:28:54.191Z,74.62
2022-12-11T01:31:21.477Z,74.36
2022-12-11T01:33:48.168Z,73.97
2022-12-11T01:36:16.467Z,73.85
2022-12-11T01:38:43.504Z,74.03
2022-12-11T01:41:10.145Z,73.84
2022-12-11T01:43:55.530Z,73.71
2022-12-11T01:46:22.062Z,73.95
2022-12-11T01:48:48.689Z,74.17
2022-12-11T01:51:16.083Z,74.18
2022-12-11T01:53:45.238Z,74.25
2022-12-11T01:56:12.546Z,73.92
2022-12-11T01:58:59.747Z,73.39
2022-12-11T02:01:32.981Z,73.47
2022-12-11T02:04:00.550Z,73.68
2022-12-11T02:06:36.106Z,73.85
2022-12-11T02:09:04.977Z,74.04
2022-12-11T02:11:39.237Z,74.31
2022-12-11T02:14:12.801Z,74.46
2022-12-11T02:16:45.266Z,73.28
2022-12-11T02:19:21.345Z,74.18
2022-12-11T02:21:50.341Z,74.55
2022-12-11T02:24:22.844Z,76.18
2022-12-11T02:26:55.291Z,76.21
2022-12-11T02:29:25.554Z,76.10
2022-12-11T02:32:02.343Z,78.30
2022-12-11T02:34:34.577Z,79.21
2022-12-11T02:37:03.590Z,80.10
2022-12-11T02:39:31.708Z,79.74
2022-12-11T02:41:59.162Z,79.94
2022-12-11T02:44:29.594Z,80.07
2022-12-11T02:46:57.741Z,81.97
2022-12-11T02:49:26.168Z,83.26
2022-12-11T02:51:54.393Z,83.82
2022-12-11T02:54:24.844Z,84.46
2022-12-11T02:56:56.591Z,84.28
2022-12-11T02:59:30.104Z,84.07
2022-12-11T03:01:56.799Z,84.75
2022-12-11T03:04:24.439Z,86.21
2022-12-11T03:06:53.768Z,85.02
2022-12-11T03:09:20.844Z,85.94
2022-12-11T03:11:47.599Z,85.70
2022-12-11T03:14:14.223Z,86.52
2022-12-11T03:16:59.608Z,86.75
2022-12-11T03:19:31.978Z,86.81
2022-12-11T03:22:22.014Z,86.35
2022-12-11T03:24:51.360Z,86.91
2022-12-11T03:27:22.263Z,85.86
2022-12-11T03:29:55.180Z,84.42
2022-12-11T03:32:23.906Z,84.93
2022-12-11T03:34:58.156Z,86.09
2022-12-11T03:37:28.156Z,84.51
2022-12-11T03:39:58.670Z,84.66
2022-12-11T03:42:26.286Z,84.76
2022-12-11T03:44:54.333Z,83.68
2022-12-11T03:47:23.170Z,83.28
2022-12-11T03:49:51.870Z,83.73
2022-12-11T03:52:19.351Z,84.16
2022-12-11T03:54:48.559Z,84.24
2022-12-11T03:57:17.454Z,84.43
2022-12-11T03:59:44.726Z,84.26
2022-12-11T04:02:11.447Z,84.33
2022-12-11T04:04:39.374Z,84.89
2022-12-11T04:07:06.955Z,84.64
2022-12-11T04:09:33.695Z,84.73
2022-12-11T04:12:00.386Z,84.65
2022-12-11T04:14:45.777Z,84.94
2022-12-11T04:17:32.256Z,84.51
2022-12-11T04:20:17.609Z,83.85
2022-12-11T04:23:02.589Z,83.72
2022-12-11T04:25:29.223Z,83.47
2022-12-11T04:27:55.861Z,83.37
2022-12-11T04:30:23.292Z,83.32
2022-12-11T04:32:50.760Z,82.80
2022-12-11T04:35:17.560Z,82.62
2022-12-11T04:37:44.587Z,82.41
2022-12-11T04:40:13.454Z,82.64
2022-12-11T04:42:40.098Z,82.70
2022-12-11T04:45:08.014Z,82.91
2022-12-11T04:47:35.891Z,83.33
2022-12-11T04:50:03.314Z,83.62
2022-12-11T04:52:29.818Z,84.06
2022-12-11T04:54:56.430Z,84.06
2022-12-11T04:57:23.394Z,83.89
2022-12-11T04:59:50.115Z,84.48
2022-12-11T05:02:16.660Z,84.39
2022-12-11T05:04:43.398Z,83.51
2022-12-11T05:07:10.222Z,83.51
2022-12-11T05:09:37.003Z,83.96
2022-12-11T05:12:03.662Z,83.25
2022-12-11T05:14:31.852Z,84.05
2022-12-11T05:16:59.091Z,84.48
2022-12-11T05:19:26.477Z,84.70
2022-12-11T05:21:53.286Z,83.82
2022-12-11T05:24:20.014Z,83.70
2022-12-11T05:26:46.623Z,83.59
2022-12-11T05:29:13.254Z,83.39
2022-12-11T05:31:39.903Z,83.30
2022-12-11T05:34:06.433Z,83.34
2022-12-11T05:36:34.398Z,83.03
2022-12-11T05:39:01.406Z,82.92
2022-12-11T05:41:29.111Z,83.78
2022-12-11T05:43:55.948Z,83.79
2022-12-11T05:46:24.131Z,83.68
2022-12-11T05:48:52.344Z,83.72
2022-12-11T05:51:19.300Z,83.82
2022-12-11T05:53:49.197Z,83.70
2022-12-11T05:56:17.226Z,83.16
2022-12-11T05:58:44.393Z,83.14
2022-12-11T06:01:14.275Z,82.40
2022-12-11T06:03:40.917Z,82.20
2022-12-11T06:06:07.704Z,82.16
2022-12-11T06:08:34.708Z,82.15
2022-12-11T06:11:01.490Z,82.14
2022-12-11T06:13:28.488Z,82.03
2022-12-11T06:15:55.443Z,82.20
2022-12-11T06:18:22.063Z,83.29
2022-12-11T06:20:48.585Z,85.13
2022-12-11T06:23:15.092Z,85.76
2022-12-11T06:25:41.784Z,86.58
2022-12-11T06:28:08.593Z,87.19
2022-12-11T06:30:39.042Z,86.84
2022-12-11T06:33:06.353Z,85.78
2022-12-11T06:35:38.585Z,85.58
2022-12-11T06:38:08.857Z,84.95
2022-12-11T06:40:35.528Z,85.31
2022-12-11T06:43:02.955Z,85.53
2022-12-11T06:45:30.243Z,84.57
2022-12-11T06:47:57.739Z,83.62
2022-12-11T06:50:24.674Z,82.71
2022-12-11T06:52:51.475Z,81.62
2022-12-11T06:55:18.121Z,81.26
2022-12-11T06:57:44.740Z,80.38
2022-12-11T07:00:11.527Z,81.06
2022-12-11T07:02:38.282Z,80.70
2022-12-11T07:05:05.341Z,80.78
2022-12-11T07:07:32.018Z,80.50
2022-12-11T07:10:02.740Z,79.75
2022-12-11T07:12:34.660Z,77.66
2022-12-11T07:15:01.547Z,76.61
2022-12-11T07:17:28.597Z,75.15
2022-12-11T07:19:55.547Z,72.76
2022-12-11T07:22:22.077Z,69.84
2022-12-11T07:24:48.582Z,70.24
2022-12-11T07:27:15.252Z,70.91
2022-12-11T07:29:41.785Z,70.06
2022-12-11T07:32:08.533Z,70.00
2022-12-11T07:34:35.230Z,68.73
2022-12-11T07:37:01.800Z,66.84
2022-12-11T07:39:28.535Z,66.27
2022-12-11T07:41:55.284Z,65.90
2022-12-11T07:44:21.759Z,65.25
2022-12-11T07:46:48.770Z,65.51
2022-12-11T07:49:15.388Z,65.22
2022-12-11T07:51:42.567Z,66.36
2022-12-11T07:54:15.888Z,66.11
2022-12-11T07:56:44.070Z,66.34
2022-12-11T07:59:11.053Z,67.53
2022-12-11T08:01:38.437Z,67.63
2022-12-11T08:04:06.134Z,66.76
2022-12-11T08:06:34.863Z,66.12
2022-12-11T08:09:02.772Z,66.68
2022-12-11T08:11:29.632Z,66.91
2022-12-11T08:13:56.270Z,65.99
2022-12-11T08:16:23.219Z,64.00
2022-12-11T08:18:50.505Z,61.78
2022-12-11T08:21:19.083Z,61.95
2022-12-11T08:23:46.212Z,63.07
2022-12-11T08:26:33.452Z,63.72
2022-12-11T08:29:01.425Z,63.52
2022-12-11T08:31:28.552Z,64.27
2022-12-11T08:33:56.541Z,64.34
2022-12-11T08:36:23.265Z,63.05
2022-12-11T08:38:50.455Z,62.87
2022-12-11T08:41:19.007Z,64.13
2022-12-11T08:43:46.157Z,65.86
2022-12-11T08:46:13.100Z,65.64
2022-12-11T08:48:40.964Z,66.08
2022-12-11T08:51:09.915Z,66.46
2022-12-11T08:53:36.695Z,66.47
2022-12-11T08:56:04.310Z,66.17
2022-12-11T08:58:30.806Z,65.72
2022-12-11T09:00:57.507Z,64.16
2022-12-11T09:03:24.784Z,66.55
2022-12-11T09:05:51.520Z,66.35
2022-12-11T09:08:18.237Z,67.71
2022-12-11T09:10:44.842Z,68.48
2022-12-11T09:13:11.431Z,69.72
2022-12-11T09:15:40.031Z,69.39
2022-12-11T09:18:07.136Z,69.99
2022-12-11T09:20:34.003Z,67.98
2022-12-11T09:23:00.849Z,66.98
2022-12-11T09:25:27.425Z,66.29
2022-12-11T09:27:54.021Z,67.33
2022-12-11T09:30:21.171Z,64.75
2022-12-11T09:32:47.844Z,62.90
2022-12-11T09:35:14.387Z,62.34
2022-12-11T09:37:40.982Z,63.24
2022-12-11T09:40:09.533Z,66.87
2022-12-11T09:42:36.197Z,67.66
2022-12-11T09:45:04.173Z,67.43
2022-12-11T09:47:35.463Z,67.84
2022-12-11T09:50:20.813Z,67.10
2022-12-11T09:52:47.522Z,66.37
2022-12-11T09:55:16.206Z,64.90
2022-12-11T09:58:01.847Z,63.03
2022-12-11T10:00:31.911Z,60.56
2022-12-11T10:02:58.840Z,58.93
2022-12-11T10:05:33.745Z,58.11
2022-12-11T10:08:10.173Z,57.85
2022-12-11T10:10:46.783Z,57.41
2022-12-11T10:13:13.354Z,58.23
2022-12-11T10:16:00.711Z,57.78
2022-12-11T10:18:28.544Z,58.19
2022-12-11T10:20:56.427Z,56.16
2022-12-11T10:23:35.658Z,56.77
2022-12-11T10:26:02.350Z,57.87
2022-12-11T10:28:28.921Z,58.16
2022-12-11T10:30:58.783Z,59.77
2022-12-11T10:33:40.827Z,58.99
2022-12-11T10:36:08.795Z,58.37
2022-12-11T10:38:41.841Z,59.50
2022-12-11T10:41:13.329Z,59.02
2022-12-11T10:43:41.812Z,58.95
2022-12-11T10:46:25.699Z,59.05
2022-12-11T10:48:53.678Z,58.73
2022-12-11T10:51:34.404Z,59.35
2022-12-11T10:54:07.420Z,59.86
2022-12-11T10:56:35.554Z,60.81
2022-12-11T10:59:02.889Z,62.08
2022-12-11T11:01:31.205Z,62.21
2022-12-11T11:04:14.981Z,62.38
2022-12-11T11:06:41.766Z,62.76
2022-12-11T11:09:27.710Z,63.04
2022-12-11T11:11:54.212Z,63.70
2022-12-11T11:14:22.488Z,64.17
2022-12-11T11:16:50.101Z,64.93
2022-12-11T11:19:17.157Z,65.07
2022-12-11T11:21:48.362Z,64.72
2022-12-11T11:24:34.189Z,64.41
2022-12-11T11:27:16.496Z,65.13
2022-12-11T11:29:46.615Z,65.18
2022-12-11T11:32:21.859Z,65.59
2022-12-11T11:34:48.484Z,65.03
2022-12-11T11:37:35.585Z,64.55
2022-12-11T11:40:28.759Z,63.02
2022-12-11T11:43:14.722Z,62.25
2022-12-11T11:45:47.026Z,62.18
2022-12-11T11:48:25.540Z,61.33
2022-12-11T11:50:53.332Z,60.75
2022-12-11T11:53:37.397Z,59.36
2022-12-11T11:56:21.591Z,59.18
2022-12-11T11:58:48.270Z,58.91
2022-12-11T12:01:17.017Z,59.27
2022-12-11T12:03:44.732Z,59.50
2022-12-11T12:06:31.647Z,59.49
2022-12-11T12:09:12.409Z,60.48
2022-12-11T12:11:44.935Z,59.38
2022-12-11T12:17:35.550Z,58.63
2022-12-11T12:20:19.414Z,58.22
2022-12-11T12:22:56.372Z,58.72
2022-12-11T12:25:41.558Z,57.61
2022-12-11T12:28:13.871Z,57.47
2022-12-11T12:30:49.226Z,58.38
2022-12-11T12:33:25.498Z,59.23
2022-12-11T12:36:03.468Z,60.57
2022-12-11T12:38:38.882Z,61.91
2022-12-11T12:41:41.956Z,62.11
2022-12-11T12:44:15.940Z,61.46
2022-12-11T12:46:42.510Z,60.65
2022-12-11T12:49:12.115Z,61.02
2022-12-11T12:51:40.061Z,61.41
2022-12-11T12:54:12.346Z,60.85
2022-12-11T12:56:40.612Z,61.19
2022-12-11T12:59:18.201Z,61.14
2022-12-11T13:01:51.709Z,60.68
2022-12-11T13:04:54.330Z,60.03
2022-12-11T13:07:18.492Z,59.37
2022-12-11T13:09:55.713Z,58.85
2022-12-11T13:12:30.443Z,59.15
2022-12-11T13:14:57.214Z,59.85
2022-12-11T13:17:25.936Z,59.62
2022-12-11T13:20:11.297Z,59.51
2022-12-11T13:22:47.073Z,58.71
2022-12-11T13:25:22.317Z,59.11
2022-12-11T13:27:49.421Z,59.65
2022-12-11T13:30:16.223Z,59.68
2022-12-11T13:32:49.048Z,59.55
2022-12-11T13:35:17.210Z,58.71
2022-12-11T13:37:44.516Z,58.71
2022-12-11T13:40:14.273Z,59.93
2022-12-11T13:42:49.832Z,60.45
2022-12-11T13:45:22.498Z,61.13
2022-12-11T13:47:49.611Z,61.95
2022-12-11T13:50:20.189Z,62.37
2022-12-11T13:52:53.771Z,61.74
2022-12-11T13:55:22.787Z,61.31
2022-12-11T13:57:49.396Z,61.11
2022-12-11T14:00:21.197Z,61.67
2022-12-11T14:02:48.333Z,61.81
2022-12-11T14:05:15.113Z,62.59
2022-12-11T14:08:02.131Z,62.80
2022-12-11T14:10:32.081Z,62.43
2022-12-11T14:12:58.610Z,62.30
2022-12-11T14:15:26.663Z,63.37
2022-12-11T14:17:54.074Z,63.09
2022-12-11T14:20:24.002Z,63.90
2022-12-11T14:22:51.134Z,63.77
2022-12-11T14:25:26.333Z,64.59
2022-12-11T14:27:54.508Z,64.61
2022-12-11T14:30:26.676Z,63.49
2022-12-11T14:32:56.144Z,64.16
2022-12-11T14:35:37.086Z,64.24
2022-12-11T14:38:22.485Z,64.37
2022-12-11T14:40:52.847Z,63.84
2022-12-11T14:43:22.786Z,64.92
2022-12-11T14:45:53.644Z,65.33
2022-12-11T14:48:23.301Z,66.52
2022-12-11T14:50:54.350Z,67.77
2022-12-11T14:53:34.505Z,68.80
2022-12-11T14:56:03.254Z,70.17
2022-12-11T14:58:30.740Z,70.69
2022-12-11T15:01:02.185Z,70.54
2022-12-11T15:03:31.838Z,71.18
2022-12-11T15:05:59.216Z,72.46
2022-12-11T15:08:33.203Z,72.36
2022-12-11T15:11:03.934Z,72.77
2022-12-11T15:13:31.366Z,72.60
2022-12-11T15:15:58.598Z,71.91
2022-12-11T15:18:36.272Z,72.37
2022-12-11T15:21:06.362Z,71.98
2022-12-11T15:23:37.969Z,71.15
2022-12-11T15:26:04.834Z,69.17
2022-12-11T15:28:33.391Z,68.96
2022-12-11T15:31:01.540Z,69.32
2022-12-11T15:33:34.063Z,69.38
2022-12-11T15:36:05.893Z,69.76
2022-12-11T15:38:34.827Z,70.31
2022-12-11T15:41:01.933Z,69.42
2022-12-11T15:43:30.828Z,69.88
2022-12-11T15:45:57.433Z,69.37
2022-12-11T15:48:24.150Z,69.15
2022-12-11T15:50:51.002Z,68.81
2022-12-11T15:53:17.578Z,67.71
2022-12-11T15:55:44.356Z,67.38
2022-12-11T15:58:18.896Z,67.91
2022-12-11T16:00:46.191Z,67.71
2022-12-11T16:03:13.987Z,66.78
2022-12-11T16:05:41.304Z,66.07
2022-12-11T16:08:12.268Z,66.10
2022-12-11T16:10:38.792Z,65.28
2022-12-11T16:13:05.325Z,66.22
2022-12-11T16:15:31.889Z,66.15
2022-12-11T16:18:02.625Z,65.22
2022-12-11T16:20:30.446Z,64.46
2022-12-11T16:23:17.607Z,64.40
2022-12-11T16:25:58.514Z,65.02
2022-12-11T16:28:25.168Z,65.93
2022-12-11T16:30:51.737Z,65.19
2022-12-11T16:33:18.453Z,65.65
2022-12-11T16:35:44.987Z,66.12
2022-12-11T16:38:11.607Z,66.01
2022-12-11T16:40:38.392Z,67.02
2022-12-11T16:43:05.167Z,67.45
2022-12-11T16:45:32.565Z,67.30
2022-12-11T16:48:01.855Z,68.11
2022-12-11T16:50:28.588Z,68.52
2022-12-11T16:52:55.947Z,68.65
2022-12-11T16:55:22.474Z,68.47
2022-12-11T16:57:49.213Z,67.81
2022-12-11T17:00:16.232Z,68.26
2022-12-11T17:02:43.347Z,68.48
2022-12-11T17:05:10.700Z,67.39
2022-12-11T17:07:37.709Z,67.52
2022-12-11T17:10:04.569Z,66.97
2022-12-11T17:12:31.251Z,66.77
2022-12-11T17:14:57.922Z,65.63
2022-12-11T17:17:24.838Z,66.19
2022-12-11T17:19:51.403Z,66.41
2022-12-11T17:22:18.511Z,66.10
2022-12-11T17:24:45.086Z,65.66
2022-12-11T17:27:12.034Z,66.39
2022-12-11T17:29:39.590Z,65.52
2022-12-11T17:32:06.379Z,65.96
2022-12-11T17:34:37.841Z,63.81
2022-12-11T17:37:05.661Z,62.59
2022-12-11T17:39:32.387Z,62.56
2022-12-11T17:41:58.907Z,63.18
2022-12-11T17:44:26.177Z,62.72
2022-12-11T17:46:52.866Z,62.84
2022-12-11T17:49:19.573Z,62.79
2022-12-11T17:51:47.254Z,62.62
2022-12-11T17:54:14.065Z,62.29
2022-12-11T17:56:40.839Z,61.62
2022-12-11T17:59:07.369Z,61.38
2022-12-11T18:01:34.149Z,61.60
2022-12-11T18:04:01.406Z,61.53
2022-12-11T18:06:28.929Z,61.97
2022-12-11T18:08:56.817Z,60.25
2022-12-11T18:11:23.751Z,60.75
2022-12-11T18:13:52.053Z,60.00
2022-12-11T18:16:24.655Z,61.79
2022-12-11T18:18:51.637Z,60.40
2022-12-11T18:21:20.909Z,59.54
2022-12-11T18:23:49.617Z,58.68
2022-12-11T18:26:17.677Z,59.41
2022-12-11T18:28:44.715Z,58.18
2022-12-11T18:31:13.022Z,58.58
2022-12-11T18:33:40.808Z,57.04
2022-12-11T18:36:07.657Z,57.87
2022-12-11T18:38:34.217Z,57.53
2022-12-11T18:41:04.761Z,57.57
2022-12-11T18:43:31.289Z,58.50
2022-12-11T18:45:57.942Z,57.78
2022-12-11T18:48:24.448Z,56.82
2022-12-11T18:50:51.670Z,56.75
2022-12-11T18:53:19.025Z,57.12
2022-12-11T18:55:46.792Z,57.20
2022-12-11T18:58:15.571Z,57.09
2022-12-11T19:00:42.894Z,57.50
2022-12-11T19:03:10.176Z,57.50
2022-12-11T19:05:39.737Z,58.29
2022-12-11T19:08:06.372Z,58.97
2022-12-11T19:10:33.056Z,58.09
2022-12-11T19:12:59.636Z,57.41
2022-12-11T19:15:27.193Z,58.98
2022-12-11T19:17:53.886Z,60.46
2022-12-11T19:23:07.129Z,59.46
2022-12-11T19:25:34.183Z,60.15
2022-12-11T19:28:01.215Z,59.90
2022-12-11T19:30:27.999Z,60.37
2022-12-11T19:32:54.636Z,60.30
2022-12-11T19:35:21.346Z,61.27
2022-12-11T19:37:48.006Z,61.31
2022-12-11T19:40:15.140Z,63.04
2022-12-11T19:42:41.801Z,63.60
2022-12-11T19:45:09.918Z,63.78
2022-12-11T19:47:36.906Z,64.02
2022-12-11T19:50:04.003Z,63.91
2022-12-11T19:52:30.585Z,63.16
2022-12-11T19:55:00.330Z,62.80
2022-12-11T19:57:27.027Z,62.49
2022-12-11T19:59:57.227Z,61.51
2022-12-11T20:02:24.537Z,62.15
2022-12-11T20:04:51.361Z,63.29
2022-12-11T20:07:18.424Z,64.05
2022-12-11T20:09:44.989Z,63.06
2022-12-11T20:12:11.986Z,61.28
2022-12-11T20:14:38.820Z,61.65
2022-12-11T20:17:14.346Z,61.31
2022-12-11T20:19:41.626Z,61.57
2022-12-11T20:22:08.628Z,59.91
2022-12-11T20:24:35.645Z,59.92
2022-12-11T20:27:02.643Z,59.53
2022-12-11T20:29:29.263Z,59.01
2022-12-11T20:31:58.878Z,58.18
2022-12-11T20:34:26.320Z,60.45
2022-12-11T20:36:53.514Z,59.75
2022-12-11T20:39:20.331Z,58.24
2022-12-11T20:41:46.975Z,59.84
2022-12-11T20:44:14.119Z,58.74
2022-12-11T20:46:41.106Z,59.19
2022-12-11T20:49:12.105Z,58.29
2022-12-11T20:51:39.225Z,58.78
2022-12-11T20:54:05.926Z,58.92
2022-12-11T20:56:32.709Z,58.06
2022-12-11T20:59:00.120Z,58.37
2022-12-11T21:01:28.164Z,58.75
2022-12-11T21:03:54.913Z,57.51
2022-12-11T21:06:25.190Z,57.94
2022-12-11T21:08:52.510Z,56.96
2022-12-11T21:11:19.726Z,57.40
2022-12-11T21:13:50.675Z,57.61
2022-12-11T21:16:18.131Z,57.64
2022-12-11T21:18:45.990Z,56.69
2022-12-11T21:21:13.311Z,56.30
2022-12-11T21:23:40.049Z,56.83
2022-12-11T21:26:06.630Z,55.86
2022-12-11T21:28:35.440Z,54.86
2022-12-11T21:31:03.915Z,53.69
2022-12-11T21:33:31.096Z,54.10
2022-12-11T21:35:58.565Z,54.39
2022-12-11T21:38:25.706Z,55.18
2022-12-11T21:40:53.153Z,56.53
2022-12-11T21:43:19.955Z,55.19
2022-12-11T21:46:02.658Z,55.71
2022-12-11T21:48:29.553Z,56.17
2022-12-11T21:51:03.416Z,55.53
2022-12-11T21:53:30.004Z,55.19
2022-12-11T21:55:57.166Z,54.51
2022-12-11T21:58:23.776Z,54.82
2022-12-11T22:00:50.510Z,54.88
2022-12-11T22:03:17.668Z,55.09
2022-12-11T22:05:44.191Z,53.62
2022-12-11T22:08:10.875Z,54.93
2022-12-11T22:10:37.622Z,55.11
2022-12-11T22:13:04.520Z,55.52
2022-12-11T22:15:31.960Z,56.52
2022-12-11T22:17:58.610Z,57.17
2022-12-11T22:20:25.268Z,57.11
2022-12-11T22:22:51.860Z,57.50
2022-12-11T22:25:18.418Z,57.84
2022-12-11T22:27:44.900Z,58.40
2022-12-11T22:30:11.774Z,58.03
2022-12-11T22:32:38.856Z,58.88
2022-12-11T22:35:05.959Z,59.98
2022-12-11T22:37:32.671Z,59.61
2022-12-11T22:39:59.319Z,58.90
2022-12-11T22:42:26.178Z,59.08
2022-12-11T22:44:52.843Z,59.05
2022-12-11T22:47:19.377Z,59.78
2022-12-11T22:49:46.013Z,59.53
2022-12-11T22:52:12.861Z,59.56
2022-12-11T22:54:40.006Z,59.42
2022-12-11T22:57:06.786Z,59.62
2022-12-11T22:59:33.595Z,59.84
2022-12-11T23:02:00.210Z,59.07
2022-12-11T23:04:26.895Z,60.47
2022-12-11T23:06:53.510Z,60.88
2022-12-11T23:09:20.211Z,61.04
2022-12-11T23:11:46.730Z,61.43
2022-12-11T23:14:14.812Z,62.39
2022-12-11T23:16:41.831Z,62.96
2022-12-11T23:19:09.037Z,60.73
2022-12-11T23:21:36.107Z,59.01
2022-12-11T23:24:03.376Z,59.56
2022-12-11T23:26:30.686Z,58.10
2022-12-11T23:28:57.937Z,55.90
2022-12-11T23:31:25.710Z,54.81
2022-12-11T23:33:52.814Z,55.09
2022-12-11T23:36:19.496Z,54.98
2022-12-11T23:38:50.981Z,54.83
2022-12-11T23:41:21.443Z,54.22
2022-12-11T23:43:48.299Z,54.52
2022-12-11T23:46:20.236Z,53.77
2022-12-11T23:48:47.775Z,54.28
2022-12-11T23:51:16.298Z,54.38
2022-12-11T23:53:43.224Z,53.36
2022-12-11T23:56:11.928Z,53.73
2022-12-11T23:58:39.167Z,52.70
